Dock III — D5PE5 — position and weather

sailwx.info

Track history (hours):
 
Tides and Currents Weather Stations Pressure Air Temp Water Temp Dewpoint Dewpoint Depression Visibility Wind Speed Wind Dir Waves Ship Positions

Dock III

Last reported at 2018-Apr-05 16:17 UTC. Time now 2018-Apr-26 01:51 UTC.
Position N 36°24' E 034°58'.
Warning: this ship's position is 20 days out of date.

Length 169 m; draft 5.6 m.

Type: Cargo ship. MMSI: 305351000.

Date/timePositionNaut miles runAvg speedWind from/ knotsBaromVisibWave heightAir tempDewpointWater temp
2018-Apr-05 16:17N 36°24' E 034°58'0 0.0
2018-Apr-05 15:58N 36°24' E 034°58'0 0.0
2018-Apr-04 18:30N 36°24' E 034°58'0 0.0
2018-Apr-04 18:00N 36°24' E 034°58'0 0.0
2018-Apr-04 16:50N 36°24' E 034°58'  
2018-Apr-01 19:23N 36°25' E 034°58'  
2018-Mar-28 23:32N 33°25' E 034°35'0 9.8
2018-Mar-28 23:30N 33°25' E 034°35'19 8.9
2018-Mar-28 21:24N 33°07' E 034°32'7 6.3
2018-Mar-28 20:22N 33°00' E 034°35'4 9.3
2018-Mar-28 19:59N 32°59' E 034°39'5 9.5
2018-Mar-28 19:27N 32°57' E 034°45'4 9.3
2018-Mar-28 19:00N 32°55' E 034°49'5 9.4
2018-Mar-28 18:30N 32°53' E 034°54'6 0.3
2018-Mar-27 22:02N 32°51' E 035°00'0 1.9
2018-Mar-27 21:49N 32°51' E 035°00'0 0.1
2018-Mar-27 17:48N 32°52' E 034°60'0 0.0
2018-Mar-27 17:18N 32°52' E 034°60'0 0.0
2018-Mar-27 13:50N 32°52' E 035°00'0 0.0
2018-Mar-27 13:30N 32°52' E 034°60'0 0.0
2018-Mar-27 09:12N 32°52' E 035°00'0 0.0
2018-Mar-27 08:52N 32°52' E 035°00'0 0.0
2018-Mar-27 08:13N 32°52' E 035°00'0 0.1
2018-Mar-27 07:55N 32°52' E 035°00'0 0.0
2018-Mar-27 07:20N 32°52' E 035°00'0 0.0
2018-Mar-27 06:52N 32°52' E 035°00'0 0.0
2018-Mar-27 06:30N 32°52' E 035°00'0 0.0
2018-Mar-27 04:42N 32°52' E 035°00'0 0.0
2018-Mar-27 03:11N 32°52' E 035°00'0 0.0
2018-Mar-27 01:58N 32°52' E 035°00'0 0.0
2018-Mar-26 23:30N 32°52' E 034°60'0 0.0
2018-Mar-26 20:02N 32°52' E 034°60'0 0.0
2018-Mar-26 19:55N 32°52' E 034°60'  
Track history (hours):
 
Tides and Currents Weather Stations Pressure Air Temp Water Temp Dewpoint Dewpoint Depression Visibility Wind Speed Wind Dir Waves Ship Positions

Dock III

Last reported at 2018-Apr-05 16:17 UTC. Time now 2018-Apr-26 01:51 UTC.
Position N 36°24' E 034°58'.
Warning: this ship's position is 20 days out of date.

Length 169 m; draft 5.6 m.

Type: Cargo ship. MMSI: 305351000.

Date/timePositionNaut miles runAvg speedWind from/ knotsBaromVisibWave heightAir tempDewpointWater temp
2018-Apr-05 16:17N 36°24' E 034°58'0 0.0
2018-Apr-05 15:58N 36°24' E 034°58'0 0.0
2018-Apr-04 18:30N 36°24' E 034°58'0 0.0
2018-Apr-04 18:00N 36°24' E 034°58'0 0.0
2018-Apr-04 16:50N 36°24' E 034°58'  
2018-Apr-01 19:23N 36°25' E 034°58'  
2018-Mar-28 23:32N 33°25' E 034°35'0 9.8
2018-Mar-28 23:30N 33°25' E 034°35'19 8.9
2018-Mar-28 21:24N 33°07' E 034°32'7 6.3
2018-Mar-28 20:22N 33°00' E 034°35'4 9.3
2018-Mar-28 19:59N 32°59' E 034°39'5 9.5
2018-Mar-28 19:27N 32°57' E 034°45'4 9.3
2018-Mar-28 19:00N 32°55' E 034°49'5 9.4
2018-Mar-28 18:30N 32°53' E 034°54'6 0.3
2018-Mar-27 22:02N 32°51' E 035°00'0 1.9
2018-Mar-27 21:49N 32°51' E 035°00'0 0.1
2018-Mar-27 17:48N 32°52' E 034°60'0 0.0
2018-Mar-27 17:18N 32°52' E 034°60'0 0.0
2018-Mar-27 13:50N 32°52' E 035°00'0 0.0
2018-Mar-27 13:30N 32°52' E 034°60'0 0.0
2018-Mar-27 09:12N 32°52' E 035°00'0 0.0
2018-Mar-27 08:52N 32°52' E 035°00'0 0.0
2018-Mar-27 08:13N 32°52' E 035°00'0 0.1
2018-Mar-27 07:55N 32°52' E 035°00'0 0.0
2018-Mar-27 07:20N 32°52' E 035°00'0 0.0
2018-Mar-27 06:52N 32°52' E 035°00'0 0.0
2018-Mar-27 06:30N 32°52' E 035°00'0 0.0
2018-Mar-27 04:42N 32°52' E 035°00'0 0.0
2018-Mar-27 03:11N 32°52' E 035°00'0 0.0
2018-Mar-27 01:58N 32°52' E 035°00'0 0.0
2018-Mar-26 23:30N 32°52' E 034°60'0 0.0
2018-Mar-26 20:02N 32°52' E 034°60'0 0.0
2018-Mar-26 19:55N 32°52' E 034°60'  

Dump ship's entire track history